createdAt,value
2019-04-27T00:02:18.096Z,18.87
2019-04-27T00:05:04.915Z,18.81
2019-04-27T00:08:00.767Z,18.79
2019-04-27T00:10:38.735Z,18.71
2019-04-27T00:13:10.900Z,18.57
2019-04-27T00:15:57.732Z,18.53
2019-04-27T00:18:49.719Z,18.48
2019-04-27T00:21:35.911Z,18.38
2019-04-27T00:24:07.913Z,18.32
2019-04-27T00:26:39.963Z,18.24
2019-04-27T00:29:13.632Z,18.24
2019-04-27T00:31:46.069Z,18.23
2019-04-27T00:34:18.196Z,18.13
2019-04-27T00:37:18.120Z,18.00
2019-04-27T00:40:09.026Z,17.86
2019-04-27T00:42:41.192Z,17.77
2019-04-27T00:45:14.042Z,17.67
2019-04-27T00:47:56.534Z,17.59
2019-04-27T00:50:19.653Z,17.57
2019-04-27T00:52:53.209Z,17.59
2019-04-27T00:55:25.313Z,17.47
2019-04-27T00:58:23.226Z,17.42
2019-04-27T01:01:23.410Z,17.36
2019-04-27T01:03:58.437Z,17.25
2019-04-27T01:06:30.776Z,17.27
2019-04-27T01:09:05.800Z,17.21
2019-04-27T01:11:37.858Z,17.13
2019-04-27T01:14:09.832Z,17.11
2019-04-27T01:16:41.818Z,17.07
2019-04-27T01:19:13.870Z,16.94
2019-04-27T01:21:45.814Z,16.93
2019-04-27T01:24:18.897Z,16.94
2019-04-27T01:27:15.865Z,16.95
2019-04-27T01:29:49.843Z,16.88
2019-04-27T01:32:21.653Z,16.79
2019-04-27T01:34:53.642Z,16.77
2019-04-27T01:37:25.600Z,16.75
2019-04-27T01:39:59.024Z,16.73
2019-04-27T01:42:31.175Z,16.73
2019-04-27T01:45:03.220Z,16.68
2019-04-27T01:47:35.244Z,16.64
2019-04-27T01:50:08.734Z,16.63
2019-04-27T01:52:41.035Z,16.53
2019-04-27T01:55:13.227Z,16.49
2019-04-27T01:57:45.180Z,16.44
2019-04-27T02:01:09.731Z,16.44
2019-04-27T02:03:50.322Z,16.38
2019-04-27T02:06:22.315Z,16.30
2019-04-27T02:08:54.256Z,16.18
2019-04-27T02:11:26.232Z,16.10
2019-04-27T02:13:59.441Z,16.12
2019-04-27T02:16:31.576Z,16.02
2019-04-27T02:19:03.582Z,15.96
2019-04-27T02:21:35.613Z,15.89
2019-04-27T02:24:09.781Z,15.88
2019-04-27T02:26:42.157Z,15.83
2019-04-27T02:29:25.576Z,15.82
2019-04-27T02:32:21.425Z,15.85
2019-04-27T02:35:09.165Z,15.85
2019-04-27T02:37:41.480Z,15.85
2019-04-27T02:40:51.634Z,15.83
2019-04-27T02:43:29.823Z,15.78
2019-04-27T02:46:01.864Z,15.73
2019-04-27T02:48:33.831Z,15.74
2019-04-27T02:51:09.913Z,15.73
2019-04-27T02:53:59.769Z,15.73
2019-04-27T02:56:31.343Z,15.76
2019-04-27T02:59:03.281Z,15.73
2019-04-27T03:01:46.210Z,15.77
2019-04-27T03:04:14.382Z,15.75
2019-04-27T03:06:46.360Z,15.73
2019-04-27T03:09:20.553Z,15.70
2019-04-27T03:11:52.169Z,15.63
2019-04-27T03:14:46.648Z,15.54
2019-04-27T03:17:31.049Z,15.46
2019-04-27T03:20:19.969Z,15.46
2019-04-27T03:22:54.621Z,15.37
2019-04-27T03:25:36.519Z,15.35
2019-04-27T03:28:11.254Z,15.28
2019-04-27T03:30:43.781Z,15.27
2019-04-27T03:33:16.027Z,15.30
2019-04-27T03:35:51.641Z,15.30
2019-04-27T03:38:22.156Z,15.38
2019-04-27T03:40:54.310Z,15.46
2019-04-27T03:43:26.363Z,15.56
2019-04-27T03:46:00.401Z,15.65
2019-04-27T03:48:32.065Z,15.71
2019-04-27T03:51:29.878Z,15.80
2019-04-27T03:54:22.205Z,15.84
2019-04-27T03:57:02.389Z,15.88
2019-04-27T03:59:53.560Z,15.87
2019-04-27T04:02:25.522Z,15.88
2019-04-27T04:04:59.570Z,15.84
2019-04-27T04:07:31.308Z,15.86
2019-04-27T04:10:03.458Z,15.85
2019-04-27T04:13:01.324Z,15.86
2019-04-27T04:16:10.841Z,15.90
2019-04-27T04:19:03.994Z,15.96
2019-04-27T04:21:36.063Z,15.99
2019-04-27T04:24:09.002Z,16.03
2019-04-27T04:26:41.699Z,16.02
2019-04-27T04:29:13.690Z,16.01
2019-04-27T04:31:45.669Z,16.01
2019-04-27T04:34:19.748Z,15.99
2019-04-27T04:36:51.375Z,16.04
2019-04-27T04:39:23.350Z,16.03
2019-04-27T04:42:10.621Z,15.98
2019-04-27T04:45:05.012Z,15.92
2019-04-27T04:48:09.889Z,15.83
2019-04-27T04:50:41.407Z,15.76
2019-04-27T04:53:13.422Z,15.57
2019-04-27T04:55:45.375Z,15.41
2019-04-27T04:58:20.705Z,15.25
2019-04-27T05:00:51.372Z,15.11
2019-04-27T05:03:23.344Z,15.00
2019-04-27T05:05:55.361Z,14.99
2019-04-27T05:08:29.123Z,14.95
2019-04-27T05:11:00.998Z,14.94
2019-04-27T05:13:33.006Z,14.92
2019-04-27T05:16:04.996Z,14.98
2019-04-27T05:18:37.031Z,15.02
2019-04-27T05:21:23.898Z,15.01
2019-04-27T05:23:55.890Z,15.00
2019-04-27T05:26:29.372Z,14.97
2019-04-27T05:29:01.526Z,14.97
2019-04-27T05:31:33.539Z,14.98
2019-04-27T05:34:06.869Z,15.05
2019-04-27T05:36:41.684Z,15.10
2019-04-27T05:39:13.331Z,15.17
2019-04-27T05:41:45.533Z,15.36
2019-04-27T05:44:46.616Z,15.43
2019-04-27T05:47:43.274Z,15.39
2019-04-27T05:50:18.254Z,15.44
2019-04-27T05:52:50.804Z,15.43
2019-04-27T05:55:22.751Z,15.36
2019-04-27T05:57:54.827Z,15.41
2019-04-27T06:00:26.775Z,15.43
2019-04-27T06:02:59.120Z,15.34
2019-04-27T06:05:31.304Z,15.31
2019-04-27T06:08:03.310Z,15.37
2019-04-27T06:10:35.271Z,15.28
2019-04-27T06:13:08.423Z,15.30
2019-04-27T06:15:41.020Z,15.16
2019-04-27T06:18:12.982Z,15.07
2019-04-27T06:20:53.438Z,14.90
2019-04-27T06:23:21.009Z,14.74
2019-04-27T06:25:52.893Z,14.71
2019-04-27T06:28:24.868Z,14.62
2019-04-27T06:30:56.868Z,14.55
2019-04-27T06:33:34.151Z,14.60
2019-04-27T06:36:02.540Z,14.63
2019-04-27T06:38:34.560Z,14.70
2019-04-27T06:41:06.579Z,14.78
2019-04-27T06:43:40.453Z,14.87
2019-04-27T06:46:12.706Z,14.99
2019-04-27T06:48:44.728Z,15.16
2019-04-27T06:51:16.658Z,15.37
2019-04-27T06:53:49.423Z,15.52
2019-04-27T06:56:21.552Z,15.68
2019-04-27T06:58:53.569Z,15.92
2019-04-27T07:01:25.585Z,16.17
2019-04-27T07:03:57.585Z,16.37
2019-04-27T07:06:30.042Z,16.52
2019-04-27T07:09:02.142Z,16.63
2019-04-27T07:11:34.180Z,16.61
2019-04-27T07:14:06.238Z,16.48
2019-04-27T07:16:39.174Z,16.42
2019-04-27T07:19:11.381Z,16.46
2019-04-27T07:21:43.376Z,16.42
2019-04-27T07:24:15.339Z,16.30
2019-04-27T07:26:48.819Z,16.18
2019-04-27T07:29:23.191Z,16.20
2019-04-27T07:31:54.775Z,16.01
2019-04-27T07:34:26.778Z,15.87
2019-04-27T07:36:59.737Z,15.81
2019-04-27T07:39:31.954Z,15.71
2019-04-27T07:42:03.922Z,15.64
2019-04-27T07:44:50.103Z,15.60
2019-04-27T07:47:23.972Z,15.60
2019-04-27T07:49:55.930Z,15.51
2019-04-27T07:52:28.708Z,15.54
2019-04-27T07:55:00.839Z,15.56
2019-04-27T07:57:32.842Z,15.52
2019-04-27T08:00:05.597Z,15.51
2019-04-27T08:02:39.029Z,15.50
2019-04-27T08:05:11.391Z,15.53
2019-04-27T08:07:43.514Z,15.46
2019-04-27T08:10:15.768Z,15.52
2019-04-27T08:12:49.655Z,15.70
2019-04-27T08:15:21.385Z,16.08
2019-04-27T08:17:53.425Z,16.61
2019-04-27T08:20:25.376Z,16.67
2019-04-27T08:22:57.373Z,16.59
2019-04-27T08:25:30.789Z,16.68
2019-04-27T08:28:13.010Z,16.78
2019-04-27T08:31:09.730Z,16.62
2019-04-27T08:33:41.751Z,16.44
2019-04-27T08:36:13.780Z,16.59
2019-04-27T08:38:45.838Z,17.00
2019-04-27T08:41:19.732Z,17.05
2019-04-27T08:43:51.608Z,16.71
2019-04-27T08:46:23.615Z,16.49
2019-04-27T08:48:55.735Z,16.22
2019-04-27T08:51:29.126Z,16.06
2019-04-27T08:54:01.242Z,15.97
2019-04-27T08:56:33.807Z,15.88
2019-04-27T08:59:05.807Z,15.83
2019-04-27T09:01:39.346Z,15.67
2019-04-27T09:04:11.977Z,15.58
2019-04-27T09:06:45.863Z,15.47
2019-04-27T09:09:41.349Z,15.32
2019-04-27T09:12:30.758Z,15.15
2019-04-27T09:15:09.992Z,15.19
2019-04-27T09:17:48.835Z,15.52
2019-04-27T09:20:42.739Z,15.54
2019-04-27T09:23:14.731Z,15.78
2019-04-27T09:25:46.816Z,15.63
2019-04-27T09:28:21.566Z,15.61
2019-04-27T09:30:52.420Z,15.78
2019-04-27T09:33:24.453Z,15.43
2019-04-27T09:35:56.790Z,15.20
2019-04-27T09:38:29.786Z,15.11
2019-04-27T09:41:01.830Z,14.99
2019-04-27T09:43:33.820Z,14.88
2019-04-27T09:46:05.914Z,14.90
2019-04-27T09:48:38.048Z,14.79
2019-04-27T09:51:10.464Z,14.63
2019-04-27T09:53:42.421Z,14.63
2019-04-27T09:56:16.361Z,14.72
2019-04-27T09:58:48.121Z,14.69
2019-04-27T10:01:20.135Z,14.66
2019-04-27T10:03:52.136Z,14.63
2019-04-27T10:06:24.136Z,14.56
2019-04-27T10:08:57.703Z,14.56
2019-04-27T10:11:30.178Z,14.64
2019-04-27T10:14:02.104Z,14.82
2019-04-27T10:16:34.122Z,14.93
2019-04-27T10:19:06.237Z,15.12
2019-04-27T10:21:38.204Z,15.31
2019-04-27T10:24:10.426Z,15.25
2019-04-27T10:26:43.882Z,15.12
2019-04-27T10:29:16.267Z,15.03
2019-04-27T10:31:48.433Z,15.03
2019-04-27T10:34:20.412Z,15.01
2019-04-27T10:36:52.505Z,14.96
2019-04-27T10:39:27.409Z,14.96
2019-04-27T10:41:58.293Z,14.81
2019-04-27T10:44:30.733Z,14.74
2019-04-27T10:47:02.751Z,14.61
2019-04-27T10:49:36.396Z,14.64
2019-04-27T10:52:08.387Z,14.60
2019-04-27T10:54:40.803Z,14.62
2019-04-27T10:57:12.792Z,14.61
2019-04-27T10:59:46.181Z,14.55
2019-04-27T11:02:18.341Z,14.61
2019-04-27T11:04:59.802Z,14.71
2019-04-27T11:07:37.257Z,14.72
2019-04-27T11:10:09.961Z,14.59
2019-04-27T11:12:41.913Z,14.62
2019-04-27T11:15:16.444Z,14.56
2019-04-27T11:17:48.565Z,14.42
2019-04-27T11:20:21.206Z,14.34
2019-04-27T11:23:00.763Z,14.23
2019-04-27T11:25:26.913Z,14.23
2019-04-27T11:28:02.147Z,14.20
2019-04-27T11:30:34.167Z,14.06
2019-04-27T11:33:06.367Z,14.04
2019-04-27T11:36:03.139Z,13.99
2019-04-27T11:38:36.564Z,14.25
2019-04-27T11:41:08.692Z,14.69
2019-04-27T11:43:40.976Z,15.24
2019-04-27T11:46:12.969Z,15.68
2019-04-27T11:48:46.552Z,16.00
2019-04-27T11:51:18.716Z,16.24
2019-04-27T11:53:51.039Z,16.54
2019-04-27T11:56:23.076Z,16.78
2019-04-27T11:58:56.074Z,16.93
2019-04-27T12:01:28.278Z,17.06
2019-04-27T12:04:00.604Z,17.62
2019-04-27T12:06:32.612Z,18.67
2019-04-27T12:09:05.963Z,19.04
2019-04-27T12:11:37.979Z,18.78
2019-04-27T12:14:09.974Z,18.33
2019-04-27T12:16:41.960Z,17.76
2019-04-27T12:19:14.058Z,17.31
2019-04-27T12:21:46.419Z,17.00
2019-04-27T12:24:18.534Z,16.94
2019-04-27T12:26:57.814Z,17.31
2019-04-27T12:29:47.413Z,17.48
2019-04-27T12:32:20.490Z,17.61
2019-04-27T12:34:52.568Z,18.03
2019-04-27T12:37:24.534Z,18.20
2019-04-27T12:39:57.633Z,17.80
2019-04-27T12:42:30.236Z,17.51
2019-04-27T12:45:02.322Z,17.22
2019-04-27T12:47:34.291Z,17.16
2019-04-27T12:50:09.222Z,17.24
2019-04-27T12:52:43.394Z,17.30
2019-04-27T12:55:37.734Z,17.40
2019-04-27T12:58:30.148Z,17.49
2019-04-27T13:01:02.943Z,17.74
2019-04-27T13:03:36.355Z,17.60
2019-04-27T13:06:08.560Z,17.79
2019-04-27T13:08:40.823Z,18.33
2019-04-27T13:11:12.836Z,18.94
2019-04-27T13:13:44.821Z,19.93
2019-04-27T13:16:16.945Z,20.55
2019-04-27T13:18:49.052Z,21.04
2019-04-27T13:21:21.038Z,20.81
2019-04-27T13:24:02.112Z,20.67
2019-04-27T13:26:26.795Z,20.21
2019-04-27T13:28:59.185Z,19.61
2019-04-27T13:31:31.277Z,19.17
2019-04-27T13:34:03.270Z,18.89
2019-04-27T13:36:36.779Z,18.51
2019-04-27T13:39:09.618Z,18.35
2019-04-27T13:41:41.607Z,18.01
2019-04-27T13:44:13.603Z,17.63
2019-04-27T13:47:02.968Z,17.26
2019-04-27T13:49:52.238Z,16.88
2019-04-27T13:52:29.807Z,16.69
2019-04-27T13:55:01.007Z,16.70
2019-04-27T13:57:32.992Z,16.67
2019-04-27T14:00:06.134Z,16.51
2019-04-27T14:02:38.139Z,16.39
2019-04-27T14:05:11.859Z,16.42
2019-04-27T14:07:44.161Z,16.39
2019-04-27T14:10:17.949Z,16.27
2019-04-27T14:12:51.328Z,16.28
2019-04-27T14:15:23.337Z,16.24
2019-04-27T14:17:55.400Z,16.58
2019-04-27T14:20:28.756Z,17.39
2019-04-27T14:23:15.645Z,18.25
2019-04-27T14:25:48.023Z,18.73
2019-04-27T14:28:20.120Z,18.49
2019-04-27T14:30:52.318Z,18.49
2019-04-27T14:33:24.376Z,18.69
2019-04-27T14:35:56.390Z,18.80
2019-04-27T14:38:28.410Z,19.08
2019-04-27T14:41:00.834Z,19.24
2019-04-27T14:43:32.796Z,19.33
2019-04-27T14:46:04.891Z,18.90
2019-04-27T14:48:36.880Z,19.07
2019-04-27T14:51:09.028Z,18.94
2019-04-27T14:53:41.214Z,18.67
2019-04-27T14:56:13.274Z,18.62
2019-04-27T14:58:45.398Z,18.61
2019-04-27T15:01:18.788Z,18.59
2019-04-27T15:03:51.083Z,18.81
2019-04-27T15:06:23.093Z,18.88
2019-04-27T15:08:55.784Z,18.94
2019-04-27T15:11:28.135Z,18.99
2019-04-27T15:14:02.590Z,19.10
2019-04-27T15:16:37.784Z,19.08
2019-04-27T15:19:13.250Z,19.12
2019-04-27T15:21:56.419Z,19.04
2019-04-27T15:24:21.312Z,18.94
2019-04-27T15:26:54.402Z,18.83
2019-04-27T15:29:29.215Z,18.65
2019-04-27T15:32:04.271Z,18.49
2019-04-27T15:35:05.357Z,18.60
2019-04-27T15:37:57.890Z,18.58
2019-04-27T15:40:54.165Z,18.37
2019-04-27T15:43:27.394Z,17.88
2019-04-27T15:46:01.374Z,17.44
2019-04-27T15:48:34.107Z,17.23
2019-04-27T15:51:14.633Z,17.29
2019-04-27T15:53:41.581Z,17.42
2019-04-27T15:56:14.408Z,17.51
2019-04-27T15:58:48.222Z,17.49
2019-04-27T16:01:20.460Z,17.30
2019-04-27T16:03:52.529Z,17.18
2019-04-27T16:06:24.550Z,17.16
2019-04-27T16:08:56.705Z,17.07
2019-04-27T16:11:28.715Z,16.93
2019-04-27T16:14:02.990Z,16.66
2019-04-27T16:16:34.772Z,16.45
2019-04-27T16:19:10.202Z,16.19
2019-04-27T16:21:46.957Z,16.03
2019-04-27T16:24:16.939Z,15.83
2019-04-27T16:26:54.616Z,15.81
2019-04-27T16:29:23.080Z,15.83
2019-04-27T16:31:56.050Z,15.85
2019-04-27T16:34:28.679Z,15.80
2019-04-27T16:37:01.362Z,15.65
2019-04-27T16:39:33.413Z,15.53
2019-04-27T16:42:08.127Z,15.47
2019-04-27T16:44:40.255Z,15.45
2019-04-27T16:47:18.893Z,15.48
2019-04-27T16:49:48.436Z,15.58
2019-04-27T16:52:20.503Z,15.49
2019-04-27T16:54:57.731Z,15.35
2019-04-27T16:57:32.456Z,15.27
2019-04-27T17:00:08.352Z,15.25
2019-04-27T17:02:40.580Z,15.21
2019-04-27T17:05:13.220Z,15.16
2019-04-27T17:07:45.218Z,15.03
2019-04-27T17:10:25.430Z,14.91
2019-04-27T17:12:51.930Z,14.81
2019-04-27T17:15:42.250Z,14.74
2019-04-27T17:18:39.842Z,14.62
2019-04-27T17:21:18.799Z,14.53
2019-04-27T17:23:45.773Z,14.43
2019-04-27T17:26:21.706Z,14.29
2019-04-27T17:29:00.501Z,14.25
2019-04-27T17:31:34.242Z,14.22
2019-04-27T17:34:08.038Z,14.20
2019-04-27T17:36:40.527Z,14.18
2019-04-27T17:39:12.850Z,14.16
2019-04-27T17:41:49.257Z,14.15
2019-04-27T17:44:22.718Z,14.17
2019-04-27T17:46:52.412Z,14.15
2019-04-27T17:49:24.454Z,14.12
2019-04-27T17:51:58.412Z,14.09
2019-04-27T17:54:30.112Z,14.07
2019-04-27T17:57:02.159Z,14.04
2019-04-27T17:59:37.223Z,14.01
2019-04-27T18:02:08.933Z,13.98
2019-04-27T18:04:41.368Z,13.92
2019-04-27T18:07:13.543Z,13.86
2019-04-27T18:09:45.496Z,13.78
2019-04-27T18:12:18.354Z,13.71
2019-04-27T18:14:50.831Z,13.69
2019-04-27T18:17:24.080Z,13.66
2019-04-27T18:19:59.652Z,13.63
2019-04-27T18:22:36.625Z,13.60
2019-04-27T18:25:09.963Z,13.58
2019-04-27T18:28:00.967Z,13.53
2019-04-27T18:31:01.033Z,13.45
2019-04-27T18:33:37.066Z,13.38
2019-04-27T18:36:13.586Z,13.37
2019-04-27T18:38:40.612Z,13.40
2019-04-27T18:41:12.685Z,13.38
2019-04-27T18:43:50.603Z,13.39
2019-04-27T18:46:21.997Z,13.40
2019-04-27T18:49:11.062Z,13.42
2019-04-27T18:51:59.390Z,13.42
2019-04-27T18:54:28.794Z,13.45
2019-04-27T18:57:04.285Z,13.45
2019-04-27T18:59:35.066Z,13.50
2019-04-27T19:02:08.489Z,13.45
2019-04-27T19:04:41.005Z,13.43
2019-04-27T19:07:13.050Z,13.45
2019-04-27T19:09:45.062Z,13.44
2019-04-27T19:12:18.243Z,13.41
2019-04-27T19:14:50.527Z,13.40
2019-04-27T19:17:22.510Z,13.40
2019-04-27T19:19:54.535Z,13.42
2019-04-27T19:22:27.971Z,13.42
2019-04-27T19:25:00.597Z,13.44
2019-04-27T19:27:51.435Z,13.43
2019-04-27T19:30:34.027Z,13.45
2019-04-27T19:33:07.651Z,13.46
2019-04-27T19:35:40.302Z,13.55
2019-04-27T19:38:12.474Z,13.54
2019-04-27T19:40:44.506Z,13.54
2019-04-27T19:43:18.082Z,13.51
2019-04-27T19:45:50.225Z,13.56
2019-04-27T19:48:22.246Z,13.55
2019-04-27T19:50:54.243Z,13.53
2019-04-27T19:53:26.259Z,13.53
2019-04-27T19:56:04.081Z,13.53
2019-04-27T19:58:41.060Z,13.50
2019-04-27T20:01:20.494Z,13.46
2019-04-27T20:04:01.146Z,13.42
2019-04-27T20:06:33.188Z,13.40
2019-04-27T20:09:15.685Z,13.38
2019-04-27T20:11:47.697Z,13.34
2019-04-27T20:14:20.870Z,13.37
2019-04-27T20:16:53.109Z,13.31
2019-04-27T20:19:25.110Z,13.33
2019-04-27T20:21:57.176Z,13.30
2019-04-27T20:24:31.395Z,13.22
2019-04-27T20:27:03.062Z,13.22
2019-04-27T20:29:35.195Z,13.16
2019-04-27T20:32:07.199Z,13.17
2019-04-27T20:34:41.130Z,13.14
2019-04-27T20:37:12.843Z,13.09
2019-04-27T20:39:44.826Z,13.06
2019-04-27T20:42:16.799Z,13.06
2019-04-27T20:44:48.829Z,12.98
2019-04-27T20:47:21.095Z,12.99
2019-04-27T20:49:53.223Z,12.92
2019-04-27T20:52:53.223Z,12.83
2019-04-27T20:55:25.542Z,12.78
2019-04-27T20:58:02.139Z,12.75
2019-04-27T21:00:32.057Z,12.75
2019-04-27T21:03:25.978Z,12.76
2019-04-27T21:06:21.550Z,12.78
2019-04-27T21:08:53.576Z,12.79
2019-04-27T21:11:27.243Z,12.82
2019-04-27T21:14:00.953Z,12.80
2019-04-27T21:16:33.053Z,12.80
2019-04-27T21:19:05.232Z,12.80
2019-04-27T21:21:37.204Z,12.83
2019-04-27T21:24:09.326Z,12.86
2019-04-27T21:26:41.978Z,12.83
2019-04-27T21:29:14.213Z,12.88
2019-04-27T21:31:46.426Z,12.83
2019-04-27T21:34:18.584Z,12.85
2019-04-27T21:36:51.118Z,12.81
2019-04-27T21:39:23.152Z,12.79
2019-04-27T21:41:55.149Z,12.76
2019-04-27T21:44:27.134Z,12.76
2019-04-27T21:47:00.714Z,12.76
2019-04-27T21:49:32.850Z,12.77
2019-04-27T21:52:14.373Z,12.75
2019-04-27T21:54:45.191Z,12.76
2019-04-27T21:57:17.250Z,12.72
2019-04-27T21:59:49.223Z,12.66
2019-04-27T22:02:21.770Z,12.65
2019-04-27T22:04:54.072Z,12.66
2019-04-27T22:07:26.166Z,12.61
2019-04-27T22:09:58.138Z,12.60
2019-04-27T22:12:31.302Z,12.56
2019-04-27T22:15:03.520Z,12.56
2019-04-27T22:17:35.728Z,12.52
2019-04-27T22:20:08.836Z,12.47
2019-04-27T22:22:45.778Z,12.47
2019-04-27T22:25:18.948Z,12.46
2019-04-27T22:27:51.407Z,12.43
2019-04-27T22:30:23.377Z,12.45
2019-04-27T22:32:55.628Z,12.45
2019-04-27T22:35:27.802Z,12.46
2019-04-27T22:38:01.802Z,12.45
2019-04-27T22:40:50.835Z,12.45
2019-04-27T22:43:42.963Z,12.49
2019-04-27T22:46:18.160Z,12.49
2019-04-27T22:48:51.679Z,12.47
2019-04-27T22:51:23.837Z,12.51
2019-04-27T22:53:55.983Z,12.59
2019-04-27T22:56:28.015Z,12.64
2019-04-27T22:59:11.432Z,12.53
2019-04-27T23:01:51.167Z,12.47
2019-04-27T23:04:32.374Z,12.37
2019-04-27T23:07:03.639Z,12.25
2019-04-27T23:09:35.555Z,12.20
2019-04-27T23:12:08.011Z,12.20
2019-04-27T23:14:41.474Z,12.18
2019-04-27T23:17:31.657Z,12.18
2019-04-27T23:20:03.892Z,12.19
2019-04-27T23:22:37.083Z,12.20
2019-04-27T23:25:11.155Z,12.23
2019-04-27T23:27:43.297Z,12.21
2019-04-27T23:30:16.541Z,12.21
2019-04-27T23:32:51.454Z,12.19
2019-04-27T23:35:23.624Z,12.20
2019-04-27T23:37:55.618Z,12.21
2019-04-27T23:40:27.636Z,12.17
2019-04-27T23:43:01.442Z,12.16
2019-04-27T23:45:33.371Z,12.13
2019-04-27T23:48:05.350Z,12.09
2019-04-27T23:50:39.326Z,12.07
2019-04-27T23:53:22.216Z,12.06
2019-04-27T23:55:54.262Z,12.02
2019-04-27T23:58:26.272Z,11.95
